sensor_id;sensor_type;location;lat;lon;timestamp;P1;durP1;ratioP1;P2;durP2;ratioP2
68872;SDS011;55907;50.806;12.882;2023-02-12T00:01:01;27.4;;;20.2;;
68872;SDS011;55907;50.806;12.882;2023-02-12T00:04:02;26.2;;;19.6;;
68872;SDS011;55907;50.806;12.882;2023-02-12T00:07:04;26.8;;;20.0;;
68872;SDS011;55907;50.806;12.882;2023-02-12T00:10:06;26.2;;;19.9;;
68872;SDS011;55907;50.806;12.882;2023-02-12T00:13:07;25.3;;;18.9;;
68872;SDS011;55907;50.806;12.882;2023-02-12T00:16:10;22.6;;;17.8;;
68872;SDS011;55907;50.806;12.882;2023-02-12T00:19:10;23.4;;;18.0;;
68872;SDS011;55907;50.806;12.882;2023-02-12T00:22:12;22.5;;;18.3;;
68872;SDS011;55907;50.806;12.882;2023-02-12T00:25:13;22.8;;;18.0;;
68872;SDS011;55907;50.806;12.882;2023-02-12T00:28:15;22.0;;;17.2;;
68872;SDS011;55907;50.806;12.882;2023-02-12T00:31:17;24.7;;;19.1;;
68872;SDS011;55907;50.806;12.882;2023-02-12T00:34:18;22.4;;;17.8;;
68872;SDS011;55907;50.806;12.882;2023-02-12T00:37:19;23.6;;;19.3;;
68872;SDS011;55907;50.806;12.882;2023-02-12T00:40:21;22.9;;;19.2;;
68872;SDS011;55907;50.806;12.882;2023-02-12T00:43:23;21.9;;;17.6;;
68872;SDS011;55907;50.806;12.882;2023-02-12T00:46:24;21.1;;;16.5;;
68872;SDS011;55907;50.806;12.882;2023-02-12T00:49:26;22.1;;;17.3;;
68872;SDS011;55907;50.806;12.882;2023-02-12T00:52:27;23.0;;;17.7;;
68872;SDS011;55907;50.806;12.882;2023-02-12T00:55:29;22.6;;;18.2;;
68872;SDS011;55907;50.806;12.882;2023-02-12T00:58:31;25.3;;;19.0;;
68872;SDS011;55907;50.806;12.882;2023-02-12T01:01:32;22.3;;;17.9;;
68872;SDS011;55907;50.806;12.882;2023-02-12T01:04:33;22.8;;;18.4;;
68872;SDS011;55907;50.806;12.882;2023-02-12T01:07:35;25.6;;;20.2;;
68872;SDS011;55907;50.806;12.882;2023-02-12T01:10:37;22.5;;;18.4;;
68872;SDS011;55907;50.806;12.882;2023-02-12T01:13:38;23.1;;;18.4;;
68872;SDS011;55907;50.806;12.882;2023-02-12T01:16:40;22.7;;;18.6;;
68872;SDS011;55907;50.806;12.882;2023-02-12T01:19:41;22.2;;;18.2;;
68872;SDS011;55907;50.806;12.882;2023-02-12T01:22:43;24.4;;;18.6;;
68872;SDS011;55907;50.806;12.882;2023-02-12T01:25:44;22.6;;;18.4;;
68872;SDS011;55907;50.806;12.882;2023-02-12T01:28:48;22.8;;;18.5;;
68872;SDS011;55907;50.806;12.882;2023-02-12T01:31:47;23.0;;;18.0;;
68872;SDS011;55907;50.806;12.882;2023-02-12T01:34:49;23.3;;;18.5;;
68872;SDS011;55907;50.806;12.882;2023-02-12T01:37:51;23.0;;;17.5;;
68872;SDS011;55907;50.806;12.882;2023-02-12T01:40:52;24.3;;;18.1;;
68872;SDS011;55907;50.806;12.882;2023-02-12T01:46:56;25.4;;;19.6;;
68872;SDS011;55907;50.806;12.882;2023-02-12T01:49:57;24.5;;;18.6;;
68872;SDS011;55907;50.806;12.882;2023-02-12T01:52:58;25.6;;;19.1;;
68872;SDS011;55907;50.806;12.882;2023-02-12T01:56:00;26.0;;;20.0;;
68872;SDS011;55907;50.806;12.882;2023-02-12T01:59:01;25.3;;;19.1;;
68872;SDS011;55907;50.806;12.882;2023-02-12T02:05:05;25.5;;;19.6;;
68872;SDS011;55907;50.806;12.882;2023-02-12T02:08:06;26.1;;;19.8;;
68872;SDS011;55907;50.806;12.882;2023-02-12T02:11:08;26.6;;;20.2;;
68872;SDS011;55907;50.806;12.882;2023-02-12T02:14:09;23.8;;;18.6;;
68872;SDS011;55907;50.806;12.882;2023-02-12T02:17:15;26.4;;;20.0;;
68872;SDS011;55907;50.806;12.882;2023-02-12T02:29:26;25.2;;;20.1;;
68872;SDS011;55907;50.806;12.882;2023-02-12T02:32:20;26.9;;;20.6;;
68872;SDS011;55907;50.806;12.882;2023-02-12T02:35:22;27.0;;;20.3;;
68872;SDS011;55907;50.806;12.882;2023-02-12T02:38:23;26.3;;;19.6;;
68872;SDS011;55907;50.806;12.882;2023-02-12T02:41:24;26.2;;;19.8;;
68872;SDS011;55907;50.806;12.882;2023-02-12T02:44:25;27.1;;;20.4;;
68872;SDS011;55907;50.806;12.882;2023-02-12T02:47:28;27.9;;;20.9;;
68872;SDS011;55907;50.806;12.882;2023-02-12T02:50:28;28.8;;;20.8;;
68872;SDS011;55907;50.806;12.882;2023-02-12T02:53:30;26.6;;;20.0;;
68872;SDS011;55907;50.806;12.882;2023-02-12T02:56:31;26.1;;;20.4;;
68872;SDS011;55907;50.806;12.882;2023-02-12T02:59:34;25.7;;;19.1;;
68872;SDS011;55907;50.806;12.882;2023-02-12T03:02:35;27.0;;;20.7;;
68872;SDS011;55907;50.806;12.882;2023-02-12T03:05:37;24.3;;;19.1;;
68872;SDS011;55907;50.806;12.882;2023-02-12T03:08:38;25.3;;;19.3;;
68872;SDS011;55907;50.806;12.882;2023-02-12T03:11:39;26.2;;;20.0;;
68872;SDS011;55907;50.806;12.882;2023-02-12T03:14:41;25.8;;;19.6;;
68872;SDS011;55907;50.806;12.882;2023-02-12T03:20:44;27.6;;;20.8;;
68872;SDS011;55907;50.806;12.882;2023-02-12T03:23:46;25.6;;;20.1;;
68872;SDS011;55907;50.806;12.882;2023-02-12T03:26:47;28.3;;;21.3;;
68872;SDS011;55907;50.806;12.882;2023-02-12T03:29:48;27.9;;;20.8;;
68872;SDS011;55907;50.806;12.882;2023-02-12T03:32:51;27.2;;;19.7;;
68872;SDS011;55907;50.806;12.882;2023-02-12T03:35:54;29.5;;;21.7;;
68872;SDS011;55907;50.806;12.882;2023-02-12T03:38:53;27.2;;;20.8;;
68872;SDS011;55907;50.806;12.882;2023-02-12T03:41:55;29.0;;;21.4;;
68872;SDS011;55907;50.806;12.882;2023-02-12T03:47:58;30.7;;;22.0;;
68872;SDS011;55907;50.806;12.882;2023-02-12T03:50:59;30.6;;;21.5;;
68872;SDS011;55907;50.806;12.882;2023-02-12T03:54:00;29.5;;;20.7;;
68872;SDS011;55907;50.806;12.882;2023-02-12T03:57:02;29.3;;;21.3;;
68872;SDS011;55907;50.806;12.882;2023-02-12T04:00:04;30.5;;;21.6;;
68872;SDS011;55907;50.806;12.882;2023-02-12T04:03:05;31.5;;;22.6;;
68872;SDS011;55907;50.806;12.882;2023-02-12T04:06:17;32.7;;;22.6;;
68872;SDS011;55907;50.806;12.882;2023-02-12T04:09:08;33.2;;;22.8;;
68872;SDS011;55907;50.806;12.882;2023-02-12T04:12:20;29.3;;;21.7;;
68872;SDS011;55907;50.806;12.882;2023-02-12T04:15:15;32.4;;;23.0;;
68872;SDS011;55907;50.806;12.882;2023-02-12T04:18:13;31.4;;;21.6;;
68872;SDS011;55907;50.806;12.882;2023-02-12T04:21:17;33.8;;;22.1;;
68872;SDS011;55907;50.806;12.882;2023-02-12T04:24:16;30.5;;;21.9;;
68872;SDS011;55907;50.806;12.882;2023-02-12T04:30:19;32.1;;;21.9;;
68872;SDS011;55907;50.806;12.882;2023-02-12T04:33:20;30.6;;;22.2;;
68872;SDS011;55907;50.806;12.882;2023-02-12T04:36:22;31.5;;;21.6;;
68872;SDS011;55907;50.806;12.882;2023-02-12T04:39:24;30.4;;;21.1;;
68872;SDS011;55907;50.806;12.882;2023-02-12T04:42:25;29.7;;;21.0;;
68872;SDS011;55907;50.806;12.882;2023-02-12T04:45:27;28.2;;;20.5;;
68872;SDS011;55907;50.806;12.882;2023-02-12T04:48:28;28.3;;;20.6;;
68872;SDS011;55907;50.806;12.882;2023-02-12T04:51:29;28.1;;;19.9;;
68872;SDS011;55907;50.806;12.882;2023-02-12T04:54:31;28.3;;;19.8;;
68872;SDS011;55907;50.806;12.882;2023-02-12T04:57:33;28.4;;;20.0;;
68872;SDS011;55907;50.806;12.882;2023-02-12T05:03:36;27.5;;;18.7;;
68872;SDS011;55907;50.806;12.882;2023-02-12T05:06:37;28.7;;;19.4;;
68872;SDS011;55907;50.806;12.882;2023-02-12T05:09:39;27.3;;;20.1;;
68872;SDS011;55907;50.806;12.882;2023-02-12T05:12:40;26.0;;;19.5;;
68872;SDS011;55907;50.806;12.882;2023-02-12T05:15:42;25.9;;;19.2;;
68872;SDS011;55907;50.806;12.882;2023-02-12T05:18:43;25.1;;;18.3;;
68872;SDS011;55907;50.806;12.882;2023-02-12T05:21:45;25.4;;;18.2;;
68872;SDS011;55907;50.806;12.882;2023-02-12T05:24:46;23.2;;;18.4;;
68872;SDS011;55907;50.806;12.882;2023-02-12T05:27:48;23.3;;;18.0;;
68872;SDS011;55907;50.806;12.882;2023-02-12T05:30:50;22.7;;;17.9;;
68872;SDS011;55907;50.806;12.882;2023-02-12T05:33:51;24.6;;;18.1;;
68872;SDS011;55907;50.806;12.882;2023-02-12T05:36:53;24.1;;;18.6;;
68872;SDS011;55907;50.806;12.882;2023-02-12T05:39:54;26.1;;;18.4;;
68872;SDS011;55907;50.806;12.882;2023-02-12T05:45:58;24.7;;;18.3;;
68872;SDS011;55907;50.806;12.882;2023-02-12T05:48:59;25.9;;;18.5;;
68872;SDS011;55907;50.806;12.882;2023-02-12T05:52:00;25.7;;;18.9;;
68872;SDS011;55907;50.806;12.882;2023-02-12T05:55:02;26.5;;;19.0;;
68872;SDS011;55907;50.806;12.882;2023-02-12T05:58:03;27.3;;;20.5;;
68872;SDS011;55907;50.806;12.882;2023-02-12T06:01:08;26.0;;;19.8;;
68872;SDS011;55907;50.806;12.882;2023-02-12T06:04:07;25.8;;;19.4;;
68872;SDS011;55907;50.806;12.882;2023-02-12T06:07:08;26.5;;;19.5;;
68872;SDS011;55907;50.806;12.882;2023-02-12T06:10:10;26.7;;;19.9;;
68872;SDS011;55907;50.806;12.882;2023-02-12T06:13:11;24.4;;;18.6;;
68872;SDS011;55907;50.806;12.882;2023-02-12T06:16:15;24.2;;;18.3;;
68872;SDS011;55907;50.806;12.882;2023-02-12T06:19:14;23.7;;;17.6;;
68872;SDS011;55907;50.806;12.882;2023-02-12T06:22:16;22.3;;;17.1;;
68872;SDS011;55907;50.806;12.882;2023-02-12T06:25:17;23.3;;;17.8;;
68872;SDS011;55907;50.806;12.882;2023-02-12T06:28:19;21.0;;;16.5;;
68872;SDS011;55907;50.806;12.882;2023-02-12T06:31:22;23.1;;;17.4;;
68872;SDS011;55907;50.806;12.882;2023-02-12T06:34:22;24.9;;;18.8;;
68872;SDS011;55907;50.806;12.882;2023-02-12T06:37:23;25.1;;;18.7;;
68872;SDS011;55907;50.806;12.882;2023-02-12T06:40:25;26.6;;;18.7;;
68872;SDS011;55907;50.806;12.882;2023-02-12T06:43:26;25.1;;;18.0;;
68872;SDS011;55907;50.806;12.882;2023-02-12T06:46:28;26.1;;;19.4;;
68872;SDS011;55907;50.806;12.882;2023-02-12T06:49:29;25.2;;;19.0;;
68872;SDS011;55907;50.806;12.882;2023-02-12T06:52:31;23.4;;;17.8;;
68872;SDS011;55907;50.806;12.882;2023-02-12T06:55:33;25.3;;;18.1;;
68872;SDS011;55907;50.806;12.882;2023-02-12T06:58:34;25.1;;;18.7;;
68872;SDS011;55907;50.806;12.882;2023-02-12T07:01:35;24.8;;;18.6;;
68872;SDS011;55907;50.806;12.882;2023-02-12T07:04:37;25.0;;;18.7;;
68872;SDS011;55907;50.806;12.882;2023-02-12T07:07:38;24.0;;;18.1;;
68872;SDS011;55907;50.806;12.882;2023-02-12T07:10:40;22.7;;;17.4;;
68872;SDS011;55907;50.806;12.882;2023-02-12T07:13:42;22.1;;;17.6;;
68872;SDS011;55907;50.806;12.882;2023-02-12T07:16:43;24.4;;;18.7;;
68872;SDS011;55907;50.806;12.882;2023-02-12T07:19:45;23.1;;;17.8;;
68872;SDS011;55907;50.806;12.882;2023-02-12T07:22:46;26.3;;;18.2;;
68872;SDS011;55907;50.806;12.882;2023-02-12T07:25:53;24.9;;;17.2;;
68872;SDS011;55907;50.806;12.882;2023-02-12T07:28:49;29.8;;;18.6;;
68872;SDS011;55907;50.806;12.882;2023-02-12T07:31:51;26.6;;;18.2;;
68872;SDS011;55907;50.806;12.882;2023-02-12T07:34:52;61.5;;;18.6;;
68872;SDS011;55907;50.806;12.882;2023-02-12T07:37:54;46.5;;;26.4;;
68872;SDS011;55907;50.806;12.882;2023-02-12T07:41:04;27.5;;;18.6;;
68872;SDS011;55907;50.806;12.882;2023-02-12T07:43:58;32.4;;;18.8;;
68872;SDS011;55907;50.806;12.882;2023-02-12T07:46:58;34.0;;;18.2;;
68872;SDS011;55907;50.806;12.882;2023-02-12T07:50:00;26.1;;;17.9;;
68872;SDS011;55907;50.806;12.882;2023-02-12T07:53:01;27.7;;;17.6;;
68872;SDS011;55907;50.806;12.882;2023-02-12T07:56:04;32.5;;;17.7;;
68872;SDS011;55907;50.806;12.882;2023-02-12T07:59:06;44.7;;;17.0;;
68872;SDS011;55907;50.806;12.882;2023-02-12T08:02:08;31.1;;;18.0;;
68872;SDS011;55907;50.806;12.882;2023-02-12T08:05:08;27.3;;;17.5;;
68872;SDS011;55907;50.806;12.882;2023-02-12T08:08:09;26.4;;;17.6;;
68872;SDS011;55907;50.806;12.882;2023-02-12T08:11:12;31.8;;;17.0;;
68872;SDS011;55907;50.806;12.882;2023-02-12T08:14:13;29.2;;;16.5;;
68872;SDS011;55907;50.806;12.882;2023-02-12T08:17:14;28.2;;;16.3;;
68872;SDS011;55907;50.806;12.882;2023-02-12T08:20:15;29.0;;;15.8;;
68872;SDS011;55907;50.806;12.882;2023-02-12T08:23:17;54.0;;;16.0;;
68872;SDS011;55907;50.806;12.882;2023-02-12T08:26:19;21.6;;;14.9;;
68872;SDS011;55907;50.806;12.882;2023-02-12T08:29:21;49.6;;;25.1;;
68872;SDS011;55907;50.806;12.882;2023-02-12T08:32:21;22.4;;;16.8;;
68872;SDS011;55907;50.806;12.882;2023-02-12T08:35:23;19.3;;;15.0;;
68872;SDS011;55907;50.806;12.882;2023-02-12T08:38:25;18.9;;;14.9;;
68872;SDS011;55907;50.806;12.882;2023-02-12T08:41:27;19.0;;;15.4;;
68872;SDS011;55907;50.806;12.882;2023-02-12T08:44:28;18.2;;;14.6;;
68872;SDS011;55907;50.806;12.882;2023-02-12T08:47:29;19.2;;;14.4;;
68872;SDS011;55907;50.806;12.882;2023-02-12T08:50:31;18.9;;;14.7;;
68872;SDS011;55907;50.806;12.882;2023-02-12T08:53:32;27.9;;;21.3;;
68872;SDS011;55907;50.806;12.882;2023-02-12T08:56:34;32.5;;;24.4;;
68872;SDS011;55907;50.806;12.882;2023-02-12T08:59:35;20.6;;;16.2;;
68872;SDS011;55907;50.806;12.882;2023-02-12T09:02:37;18.1;;;14.8;;
68872;SDS011;55907;50.806;12.882;2023-02-12T09:05:39;17.5;;;13.9;;
68872;SDS011;55907;50.806;12.882;2023-02-12T09:08:40;18.7;;;15.1;;
68872;SDS011;55907;50.806;12.882;2023-02-12T09:11:42;19.1;;;16.0;;
68872;SDS011;55907;50.806;12.882;2023-02-12T09:14:43;18.6;;;14.5;;
68872;SDS011;55907;50.806;12.882;2023-02-12T09:17:45;17.9;;;14.6;;
68872;SDS011;55907;50.806;12.882;2023-02-12T09:20:46;17.4;;;15.2;;
68872;SDS011;55907;50.806;12.882;2023-02-12T09:23:48;17.3;;;14.1;;
68872;SDS011;55907;50.806;12.882;2023-02-12T09:26:49;17.7;;;15.0;;
68872;SDS011;55907;50.806;12.882;2023-02-12T09:29:51;29.1;;;19.5;;
68872;SDS011;55907;50.806;12.882;2023-02-12T09:32:52;20.2;;;15.9;;
68872;SDS011;55907;50.806;12.882;2023-02-12T09:35:54;24.1;;;16.3;;
68872;SDS011;55907;50.806;12.882;2023-02-12T09:38:55;20.9;;;15.6;;
68872;SDS011;55907;50.806;12.882;2023-02-12T09:42:02;26.1;;;16.2;;
68872;SDS011;55907;50.806;12.882;2023-02-12T09:45:01;40.0;;;16.5;;
68872;SDS011;55907;50.806;12.882;2023-02-12T09:48:02;50.5;;;16.4;;
68872;SDS011;55907;50.806;12.882;2023-02-12T09:51:02;27.4;;;16.3;;
68872;SDS011;55907;50.806;12.882;2023-02-12T09:54:04;35.3;;;16.3;;
68872;SDS011;55907;50.806;12.882;2023-02-12T09:57:05;51.6;;;18.9;;
68872;SDS011;55907;50.806;12.882;2023-02-12T10:00:08;36.3;;;16.4;;
68872;SDS011;55907;50.806;12.882;2023-02-12T10:03:11;31.4;;;16.3;;
68872;SDS011;55907;50.806;12.882;2023-02-12T10:06:10;30.8;;;15.9;;
68872;SDS011;55907;50.806;12.882;2023-02-12T10:09:17;20.8;;;15.3;;
68872;SDS011;55907;50.806;12.882;2023-02-12T10:12:15;22.0;;;15.3;;
68872;SDS011;55907;50.806;12.882;2023-02-12T10:15:16;18.9;;;15.2;;
68872;SDS011;55907;50.806;12.882;2023-02-12T10:18:19;22.6;;;17.2;;
68872;SDS011;55907;50.806;12.882;2023-02-12T10:21:20;28.4;;;16.2;;
68872;SDS011;55907;50.806;12.882;2023-02-12T10:24:22;53.3;;;16.2;;
68872;SDS011;55907;50.806;12.882;2023-02-12T10:27:21;23.0;;;15.5;;
68872;SDS011;55907;50.806;12.882;2023-02-12T10:30:23;27.3;;;16.6;;
68872;SDS011;55907;50.806;12.882;2023-02-12T10:33:24;22.8;;;16.6;;
68872;SDS011;55907;50.806;12.882;2023-02-12T10:36:28;20.9;;;16.4;;
68872;SDS011;55907;50.806;12.882;2023-02-12T10:39:27;20.7;;;16.2;;
68872;SDS011;55907;50.806;12.882;2023-02-12T10:42:32;22.7;;;17.8;;
68872;SDS011;55907;50.806;12.882;2023-02-12T10:45:30;22.1;;;17.9;;
68872;SDS011;55907;50.806;12.882;2023-02-12T10:48:32;17.4;;;14.3;;
68872;SDS011;55907;50.806;12.882;2023-02-12T10:51:35;18.1;;;14.6;;
68872;SDS011;55907;50.806;12.882;2023-02-12T10:54:35;19.0;;;14.8;;
68872;SDS011;55907;50.806;12.882;2023-02-12T10:57:36;16.5;;;14.0;;
68872;SDS011;55907;50.806;12.882;2023-02-12T11:00:37;24.2;;;19.5;;
68872;SDS011;55907;50.806;12.882;2023-02-12T11:03:39;15.4;;;13.3;;
68872;SDS011;55907;50.806;12.882;2023-02-12T11:06:40;15.8;;;14.1;;
68872;SDS011;55907;50.806;12.882;2023-02-12T11:09:43;13.9;;;12.5;;
68872;SDS011;55907;50.806;12.882;2023-02-12T11:12:43;13.3;;;11.9;;
68872;SDS011;55907;50.806;12.882;2023-02-12T11:18:46;12.5;;;11.3;;
68872;SDS011;55907;50.806;12.882;2023-02-12T11:21:48;13.6;;;10.9;;
68872;SDS011;55907;50.806;12.882;2023-02-12T11:24:49;10.8;;;9.7;;
68872;SDS011;55907;50.806;12.882;2023-02-12T11:28:00;10.7;;;9.6;;
68872;SDS011;55907;50.806;12.882;2023-02-12T11:30:54;9.9;;;8.9;;
68872;SDS011;55907;50.806;12.882;2023-02-12T11:36:55;10.3;;;9.3;;
68872;SDS011;55907;50.806;12.882;2023-02-12T11:39:57;10.8;;;9.7;;
68872;SDS011;55907;50.806;12.882;2023-02-12T11:42:59;11.8;;;10.6;;
68872;SDS011;55907;50.806;12.882;2023-02-12T11:46:00;11.3;;;10.2;;
68872;SDS011;55907;50.806;12.882;2023-02-12T11:49:01;10.8;;;9.7;;
68872;SDS011;55907;50.806;12.882;2023-02-12T11:52:03;12.1;;;10.8;;
68872;SDS011;55907;50.806;12.882;2023-02-12T11:55:06;11.3;;;10.2;;
68872;SDS011;55907;50.806;12.882;2023-02-12T11:58:12;11.8;;;10.0;;
68872;SDS011;55907;50.806;12.882;2023-02-12T12:01:09;11.3;;;9.7;;
68872;SDS011;55907;50.806;12.882;2023-02-12T12:04:10;12.6;;;11.3;;
68872;SDS011;55907;50.806;12.882;2023-02-12T12:07:12;14.6;;;12.4;;
68872;SDS011;55907;50.806;12.882;2023-02-12T12:10:14;13.9;;;12.0;;
68872;SDS011;55907;50.806;12.882;2023-02-12T12:13:15;13.6;;;12.0;;
68872;SDS011;55907;50.806;12.882;2023-02-12T12:16:17;14.7;;;12.2;;
68872;SDS011;55907;50.806;12.882;2023-02-12T12:19:19;13.1;;;10.8;;
68872;SDS011;55907;50.806;12.882;2023-02-12T12:19:57;unavailable;;;unavailable;;
68872;SDS011;55907;50.806;12.882;2023-02-12T12:23:49;unavailable;;;unavailable;;
68872;SDS011;55907;50.806;12.882;2023-02-12T12:25:21;12.1;;;8.3;;
68872;SDS011;55907;50.806;12.882;2023-02-12T12:28:26;11.9;;;7.7;;
68872;SDS011;55907;50.806;12.882;2023-02-12T12:31:24;10.7;;;7.2;;
68872;SDS011;55907;50.806;12.882;2023-02-12T12:34:25;13.7;;;8.0;;
68872;SDS011;55907;50.806;12.882;2023-02-12T12:37:29;12.5;;;8.2;;
68872;SDS011;55907;50.806;12.882;2023-02-12T12:40:33;11.9;;;8.2;;
68872;SDS011;55907;50.806;12.882;2023-02-12T12:43:32;11.6;;;8.2;;
68872;SDS011;55907;50.806;12.882;2023-02-12T12:46:33;12.4;;;8.9;;
68872;SDS011;55907;50.806;12.882;2023-02-12T12:52:38;15.8;;;11.0;;
68872;SDS011;55907;50.806;12.882;2023-02-12T12:55:40;14.3;;;10.6;;
68872;SDS011;55907;50.806;12.882;2023-02-12T12:58:39;13.9;;;10.9;;
68872;SDS011;55907;50.806;12.882;2023-02-12T13:01:45;14.5;;;11.1;;
68872;SDS011;55907;50.806;12.882;2023-02-12T13:07:44;14.6;;;10.0;;
68872;SDS011;55907;50.806;12.882;2023-02-12T13:10:43;12.0;;;8.8;;
68872;SDS011;55907;50.806;12.882;2023-02-12T13:13:45;12.6;;;9.1;;
68872;SDS011;55907;50.806;12.882;2023-02-12T13:16:47;14.7;;;10.8;;
68872;SDS011;55907;50.806;12.882;2023-02-12T13:19:52;14.5;;;10.7;;
68872;SDS011;55907;50.806;12.882;2023-02-12T13:22:51;13.6;;;10.7;;
68872;SDS011;55907;50.806;12.882;2023-02-12T13:25:53;17.0;;;12.9;;
68872;SDS011;55907;50.806;12.882;2023-02-12T13:28:52;17.8;;;13.5;;
68872;SDS011;55907;50.806;12.882;2023-02-12T13:31:54;16.3;;;11.7;;
68872;SDS011;55907;50.806;12.882;2023-02-12T13:34:55;19.7;;;13.1;;
68872;SDS011;55907;50.806;12.882;2023-02-12T13:37:56;18.2;;;12.4;;
68872;SDS011;55907;50.806;12.882;2023-02-12T13:40:59;14.7;;;10.7;;
68872;SDS011;55907;50.806;12.882;2023-02-12T13:44:02;14.6;;;9.7;;
68872;SDS011;55907;50.806;12.882;2023-02-12T13:47:03;12.4;;;9.0;;
68872;SDS011;55907;50.806;12.882;2023-02-12T13:50:04;13.2;;;8.9;;
68872;SDS011;55907;50.806;12.882;2023-02-12T13:53:06;12.7;;;8.2;;
68872;SDS011;55907;50.806;12.882;2023-02-12T13:56:06;14.3;;;8.9;;
68872;SDS011;55907;50.806;12.882;2023-02-12T14:05:14;13.7;;;9.7;;
68872;SDS011;55907;50.806;12.882;2023-02-12T14:08:24;13.4;;;9.5;;
68872;SDS011;55907;50.806;12.882;2023-02-12T14:11:14;15.0;;;10.4;;
68872;SDS011;55907;50.806;12.882;2023-02-12T14:14:20;15.4;;;10.5;;
68872;SDS011;55907;50.806;12.882;2023-02-12T14:20:22;14.9;;;10.6;;
68872;SDS011;55907;50.806;12.882;2023-02-12T14:23:21;15.2;;;11.6;;
68872;SDS011;55907;50.806;12.882;2023-02-12T14:26:21;14.8;;;11.4;;
68872;SDS011;55907;50.806;12.882;2023-02-12T14:29:22;16.4;;;12.7;;
68872;SDS011;55907;50.806;12.882;2023-02-12T14:35:29;15.7;;;11.9;;
68872;SDS011;55907;50.806;12.882;2023-02-12T14:41:29;15.9;;;11.7;;
68872;SDS011;55907;50.806;12.882;2023-02-12T14:44:35;16.7;;;12.6;;
68872;SDS011;55907;50.806;12.882;2023-02-12T14:50:37;16.2;;;13.2;;
68872;SDS011;55907;50.806;12.882;2023-02-12T14:53:34;18.2;;;13.9;;
68872;SDS011;55907;50.806;12.882;2023-02-12T14:56:44;18.7;;;15.1;;
68872;SDS011;55907;50.806;12.882;2023-02-12T14:59:37;18.3;;;14.1;;
68872;SDS011;55907;50.806;12.882;2023-02-12T15:02:39;18.1;;;14.3;;
68872;SDS011;55907;50.806;12.882;2023-02-12T15:05:41;19.7;;;15.1;;
68872;SDS011;55907;50.806;12.882;2023-02-12T15:11:44;20.3;;;15.0;;
68872;SDS011;55907;50.806;12.882;2023-02-12T15:14:47;21.3;;;15.3;;
68872;SDS011;55907;50.806;12.882;2023-02-12T15:17:52;19.6;;;15.0;;
68872;SDS011;55907;50.806;12.882;2023-02-12T15:20:49;18.9;;;13.8;;
68872;SDS011;55907;50.806;12.882;2023-02-12T15:23:57;19.8;;;14.5;;
68872;SDS011;55907;50.806;12.882;2023-02-12T15:26:51;21.2;;;15.4;;
68872;SDS011;55907;50.806;12.882;2023-02-12T15:29:52;20.0;;;15.1;;
68872;SDS011;55907;50.806;12.882;2023-02-12T15:32:54;21.1;;;15.4;;
68872;SDS011;55907;50.806;12.882;2023-02-12T15:35:56;22.4;;;15.9;;
68872;SDS011;55907;50.806;12.882;2023-02-12T15:38:58;20.6;;;15.6;;
68872;SDS011;55907;50.806;12.882;2023-02-12T15:41:59;23.3;;;17.0;;
68872;SDS011;55907;50.806;12.882;2023-02-12T15:45:01;22.8;;;17.1;;
68872;SDS011;55907;50.806;12.882;2023-02-12T15:48:06;21.1;;;16.4;;
68872;SDS011;55907;50.806;12.882;2023-02-12T15:51:05;25.6;;;18.8;;
68872;SDS011;55907;50.806;12.882;2023-02-12T15:54:05;23.4;;;17.5;;
68872;SDS011;55907;50.806;12.882;2023-02-12T15:57:08;23.9;;;17.6;;
68872;SDS011;55907;50.806;12.882;2023-02-12T16:00:09;26.0;;;18.4;;
68872;SDS011;55907;50.806;12.882;2023-02-12T16:03:17;24.8;;;18.4;;
68872;SDS011;55907;50.806;12.882;2023-02-12T16:09:14;23.3;;;17.8;;
68872;SDS011;55907;50.806;12.882;2023-02-12T16:12:14;24.1;;;17.8;;
68872;SDS011;55907;50.806;12.882;2023-02-12T16:15:24;26.3;;;17.9;;
68872;SDS011;55907;50.806;12.882;2023-02-12T16:18:25;25.3;;;18.0;;
68872;SDS011;55907;50.806;12.882;2023-02-12T16:24:22;26.2;;;18.6;;
68872;SDS011;55907;50.806;12.882;2023-02-12T16:27:23;24.9;;;19.1;;
68872;SDS011;55907;50.806;12.882;2023-02-12T16:30:25;27.2;;;18.2;;
68872;SDS011;55907;50.806;12.882;2023-02-12T16:36:28;29.6;;;20.6;;
68872;SDS011;55907;50.806;12.882;2023-02-12T16:42:29;29.7;;;21.2;;
68872;SDS011;55907;50.806;12.882;2023-02-12T16:45:35;32.7;;;22.1;;
68872;SDS011;55907;50.806;12.882;2023-02-12T16:48:36;32.8;;;22.1;;
68872;SDS011;55907;50.806;12.882;2023-02-12T16:51:35;37.6;;;25.7;;
68872;SDS011;55907;50.806;12.882;2023-02-12T16:54:35;35.2;;;23.6;;
68872;SDS011;55907;50.806;12.882;2023-02-12T16:57:37;33.5;;;22.3;;
68872;SDS011;55907;50.806;12.882;2023-02-12T17:00:39;34.9;;;22.3;;
68872;SDS011;55907;50.806;12.882;2023-02-12T17:03:40;35.3;;;22.9;;
68872;SDS011;55907;50.806;12.882;2023-02-12T17:06:42;54.7;;;31.5;;
68872;SDS011;55907;50.806;12.882;2023-02-12T17:09:43;43.6;;;27.7;;
68872;SDS011;55907;50.806;12.882;2023-02-12T17:12:45;41.9;;;28.8;;
68872;SDS011;55907;50.806;12.882;2023-02-12T17:15:48;34.4;;;22.5;;
68872;SDS011;55907;50.806;12.882;2023-02-12T17:18:48;33.3;;;21.0;;
68872;SDS011;55907;50.806;12.882;2023-02-12T17:21:49;36.4;;;23.0;;
68872;SDS011;55907;50.806;12.882;2023-02-12T17:24:51;32.1;;;20.2;;
68872;SDS011;55907;50.806;12.882;2023-02-12T17:27:52;36.9;;;23.7;;
68872;SDS011;55907;50.806;12.882;2023-02-12T17:30:54;31.1;;;20.8;;
68872;SDS011;55907;50.806;12.882;2023-02-12T17:33:55;31.7;;;20.1;;
68872;SDS011;55907;50.806;12.882;2023-02-12T17:36:57;31.8;;;21.2;;
68872;SDS011;55907;50.806;12.882;2023-02-12T17:39:58;31.4;;;20.2;;
68872;SDS011;55907;50.806;12.882;2023-02-12T17:43:00;33.1;;;22.8;;
68872;SDS011;55907;50.806;12.882;2023-02-12T17:46:04;37.7;;;24.4;;
68872;SDS011;55907;50.806;12.882;2023-02-12T17:49:03;34.1;;;23.3;;
68872;SDS011;55907;50.806;12.882;2023-02-12T17:52:04;34.0;;;23.6;;
68872;SDS011;55907;50.806;12.882;2023-02-12T17:55:07;37.4;;;24.1;;
68872;SDS011;55907;50.806;12.882;2023-02-12T17:58:08;33.6;;;23.6;;
68872;SDS011;55907;50.806;12.882;2023-02-12T18:01:10;35.0;;;23.6;;
68872;SDS011;55907;50.806;12.882;2023-02-12T18:04:11;36.2;;;24.6;;
68872;SDS011;55907;50.806;12.882;2023-02-12T18:07:12;31.0;;;21.4;;
68872;SDS011;55907;50.806;12.882;2023-02-12T18:10:14;33.2;;;23.5;;
68872;SDS011;55907;50.806;12.882;2023-02-12T18:13:15;35.4;;;22.8;;
68872;SDS011;55907;50.806;12.882;2023-02-12T18:16:17;32.0;;;21.7;;
68872;SDS011;55907;50.806;12.882;2023-02-12T18:19:18;32.3;;;22.8;;
68872;SDS011;55907;50.806;12.882;2023-02-12T18:22:20;36.9;;;24.0;;
68872;SDS011;55907;50.806;12.882;2023-02-12T18:25:21;30.7;;;21.4;;
68872;SDS011;55907;50.806;12.882;2023-02-12T18:28:23;27.2;;;19.8;;
68872;SDS011;55907;50.806;12.882;2023-02-12T18:31:25;29.7;;;21.7;;
68872;SDS011;55907;50.806;12.882;2023-02-12T18:34:26;31.0;;;22.6;;
68872;SDS011;55907;50.806;12.882;2023-02-12T18:37:28;34.2;;;23.6;;
68872;SDS011;55907;50.806;12.882;2023-02-12T18:40:29;34.8;;;23.2;;
68872;SDS011;55907;50.806;12.882;2023-02-12T18:43:30;34.6;;;22.5;;
68872;SDS011;55907;50.806;12.882;2023-02-12T18:46:32;33.1;;;21.7;;
68872;SDS011;55907;50.806;12.882;2023-02-12T18:48:23;unavailable;;;unavailable;;
68872;SDS011;55907;50.806;12.882;2023-02-12T18:48:37;33.1;;;21.7;;
68872;SDS011;55907;50.806;12.882;2023-02-12T18:49:34;33.5;;;23.6;;
68872;SDS011;55907;50.806;12.882;2023-02-12T18:52:35;38.0;;;25.4;;
68872;SDS011;55907;50.806;12.882;2023-02-12T18:55:37;38.8;;;25.4;;
68872;SDS011;55907;50.806;12.882;2023-02-12T18:58:38;36.6;;;25.6;;
68872;SDS011;55907;50.806;12.882;2023-02-12T19:01:40;38.0;;;24.4;;